sensor_id;sensor_type;location;lat;lon;timestamp;P1;durP1;ratioP1;P2;durP2;ratioP2
57113;SDS011;42994;51.606;9.988;2023-01-24T00:02:03;9.30;;;6.10;;
57113;SDS011;42994;51.606;9.988;2023-01-24T00:04:29;8.70;;;5.22;;
57113;SDS011;42994;51.606;9.988;2023-01-24T00:06:56;7.10;;;4.68;;
57113;SDS011;42994;51.606;9.988;2023-01-24T00:09:22;7.13;;;4.90;;
57113;SDS011;42994;51.606;9.988;2023-01-24T00:11:49;9.48;;;5.43;;
57113;SDS011;42994;51.606;9.988;2023-01-24T00:14:15;7.50;;;4.85;;
57113;SDS011;42994;51.606;9.988;2023-01-24T00:16:43;6.85;;;4.32;;
57113;SDS011;42994;51.606;9.988;2023-01-24T00:19:10;8.13;;;5.28;;
57113;SDS011;42994;51.606;9.988;2023-01-24T00:21:37;10.20;;;5.70;;
57113;SDS011;42994;51.606;9.988;2023-01-24T00:24:03;8.85;;;5.53;;
57113;SDS011;42994;51.606;9.988;2023-01-24T00:26:31;9.43;;;6.40;;
57113;SDS011;42994;51.606;9.988;2023-01-24T00:28:57;11.30;;;5.75;;
57113;SDS011;42994;51.606;9.988;2023-01-24T00:31:24;10.38;;;5.25;;
57113;SDS011;42994;51.606;9.988;2023-01-24T00:33:54;8.52;;;5.20;;
57113;SDS011;42994;51.606;9.988;2023-01-24T00:36:21;9.05;;;5.70;;
57113;SDS011;42994;51.606;9.988;2023-01-24T00:38:47;8.75;;;5.70;;
57113;SDS011;42994;51.606;9.988;2023-01-24T00:41:14;10.13;;;5.97;;
57113;SDS011;42994;51.606;9.988;2023-01-24T00:43:40;10.20;;;5.88;;
57113;SDS011;42994;51.606;9.988;2023-01-24T00:46:08;8.70;;;5.28;;
57113;SDS011;42994;51.606;9.988;2023-01-24T00:48:35;10.88;;;6.47;;
57113;SDS011;42994;51.606;9.988;2023-01-24T00:51:03;9.90;;;6.57;;
57113;SDS011;42994;51.606;9.988;2023-01-24T00:53:30;7.93;;;4.40;;
57113;SDS011;42994;51.606;9.988;2023-01-24T00:55:57;8.93;;;5.43;;
57113;SDS011;42994;51.606;9.988;2023-01-24T00:58:24;8.80;;;4.93;;
57113;SDS011;42994;51.606;9.988;2023-01-24T01:00:50;9.43;;;5.53;;
57113;SDS011;42994;51.606;9.988;2023-01-24T01:03:20;7.63;;;4.75;;
57113;SDS011;42994;51.606;9.988;2023-01-24T01:05:47;9.25;;;5.57;;
57113;SDS011;42994;51.606;9.988;2023-01-24T01:08:15;10.50;;;5.97;;
57113;SDS011;42994;51.606;9.988;2023-01-24T01:10:43;9.80;;;5.53;;
57113;SDS011;42994;51.606;9.988;2023-01-24T01:13:10;8.00;;;4.68;;
57113;SDS011;42994;51.606;9.988;2023-01-24T01:15:38;9.60;;;5.45;;
57113;SDS011;42994;51.606;9.988;2023-01-24T01:18:05;10.90;;;6.07;;
57113;SDS011;42994;51.606;9.988;2023-01-24T01:20:31;9.93;;;5.22;;
57113;SDS011;42994;51.606;9.988;2023-01-24T01:22:58;8.93;;;5.53;;
57113;SDS011;42994;51.606;9.988;2023-01-24T01:25:26;7.00;;;4.65;;
57113;SDS011;42994;51.606;9.988;2023-01-24T01:27:53;8.43;;;5.30;;
57113;SDS011;42994;51.606;9.988;2023-01-24T01:30:19;7.53;;;5.13;;
57113;SDS011;42994;51.606;9.988;2023-01-24T01:32:46;9.13;;;5.50;;
57113;SDS011;42994;51.606;9.988;2023-01-24T01:35:13;8.68;;;5.35;;
57113;SDS011;42994;51.606;9.988;2023-01-24T01:37:40;10.48;;;6.50;;
57113;SDS011;42994;51.606;9.988;2023-01-24T01:40:08;11.80;;;7.10;;
57113;SDS011;42994;51.606;9.988;2023-01-24T01:42:48;12.20;;;7.05;;
57113;SDS011;42994;51.606;9.988;2023-01-24T01:45:29;8.40;;;6.17;;
57113;SDS011;42994;51.606;9.988;2023-01-24T01:48:04;14.73;;;6.30;;
57113;SDS011;42994;51.606;9.988;2023-01-24T01:50:40;8.35;;;4.82;;
57113;SDS011;42994;51.606;9.988;2023-01-24T01:53:12;7.03;;;4.50;;
57113;SDS011;42994;51.606;9.988;2023-01-24T01:55:40;8.98;;;4.95;;
57113;SDS011;42994;51.606;9.988;2023-01-24T01:58:13;15.45;;;7.00;;
57113;SDS011;42994;51.606;9.988;2023-01-24T02:00:41;16.02;;;7.32;;
57113;SDS011;42994;51.606;9.988;2023-01-24T02:03:16;16.98;;;7.35;;
57113;SDS011;42994;51.606;9.988;2023-01-24T02:06:08;11.15;;;6.53;;
57113;SDS011;42994;51.606;9.988;2023-01-24T02:08:41;14.43;;;7.50;;
57113;SDS011;42994;51.606;9.988;2023-01-24T02:11:09;12.95;;;7.00;;
57113;SDS011;42994;51.606;9.988;2023-01-24T02:13:57;14.52;;;7.07;;
57113;SDS011;42994;51.606;9.988;2023-01-24T02:16:39;9.98;;;5.90;;
57113;SDS011;42994;51.606;9.988;2023-01-24T02:19:06;13.88;;;7.35;;
57113;SDS011;42994;51.606;9.988;2023-01-24T02:21:36;13.73;;;7.72;;
57113;SDS011;42994;51.606;9.988;2023-01-24T02:24:04;16.85;;;7.45;;
57113;SDS011;42994;51.606;9.988;2023-01-24T02:26:38;15.38;;;8.40;;
57113;SDS011;42994;51.606;9.988;2023-01-24T02:29:06;14.90;;;8.00;;
57113;SDS011;42994;51.606;9.988;2023-01-24T02:34:21;7.85;;;4.75;;
57113;SDS011;42994;51.606;9.988;2023-01-24T02:36:50;8.02;;;4.90;;
57113;SDS011;42994;51.606;9.988;2023-01-24T02:39:21;6.78;;;4.63;;
57113;SDS011;42994;51.606;9.988;2023-01-24T02:41:53;9.35;;;4.95;;
57113;SDS011;42994;51.606;9.988;2023-01-24T02:44:24;7.00;;;5.00;;
57113;SDS011;42994;51.606;9.988;2023-01-24T02:46:57;12.32;;;5.57;;
57113;SDS011;42994;51.606;9.988;2023-01-24T02:49:23;7.38;;;5.25;;
57113;SDS011;42994;51.606;9.988;2023-01-24T02:51:50;9.20;;;5.78;;
57113;SDS011;42994;51.606;9.988;2023-01-24T02:54:34;8.35;;;5.18;;
57113;SDS011;42994;51.606;9.988;2023-01-24T02:57:02;11.13;;;6.88;;
57113;SDS011;42994;51.606;9.988;2023-01-24T02:59:46;11.95;;;6.60;;
57113;SDS011;42994;51.606;9.988;2023-01-24T03:02:14;7.38;;;5.10;;
57113;SDS011;42994;51.606;9.988;2023-01-24T03:04:40;8.13;;;4.90;;
57113;SDS011;42994;51.606;9.988;2023-01-24T03:07:07;8.57;;;5.60;;
57113;SDS011;42994;51.606;9.988;2023-01-24T03:09:35;7.53;;;5.40;;
57113;SDS011;42994;51.606;9.988;2023-01-24T03:12:07;8.45;;;5.38;;
57113;SDS011;42994;51.606;9.988;2023-01-24T03:14:54;5.93;;;4.00;;
57113;SDS011;42994;51.606;9.988;2023-01-24T03:17:39;7.40;;;4.45;;
57113;SDS011;42994;51.606;9.988;2023-01-24T03:20:23;7.80;;;4.93;;
57113;SDS011;42994;51.606;9.988;2023-01-24T03:23:07;7.18;;;4.57;;
57113;SDS011;42994;51.606;9.988;2023-01-24T03:25:52;5.60;;;4.45;;
57113;SDS011;42994;51.606;9.988;2023-01-24T03:28:39;6.63;;;4.65;;
57113;SDS011;42994;51.606;9.988;2023-01-24T03:31:24;5.70;;;4.07;;
57113;SDS011;42994;51.606;9.988;2023-01-24T03:34:09;6.95;;;4.32;;
57113;SDS011;42994;51.606;9.988;2023-01-24T03:36:53;6.85;;;4.55;;
57113;SDS011;42994;51.606;9.988;2023-01-24T03:39:20;6.40;;;4.40;;
57113;SDS011;42994;51.606;9.988;2023-01-24T03:42:04;6.50;;;4.60;;
57113;SDS011;42994;51.606;9.988;2023-01-24T03:44:34;6.90;;;4.47;;
57113;SDS011;42994;51.606;9.988;2023-01-24T03:47:00;7.45;;;4.22;;
57113;SDS011;42994;51.606;9.988;2023-01-24T03:49:27;5.60;;;4.25;;
57113;SDS011;42994;51.606;9.988;2023-01-24T03:52:11;5.15;;;3.58;;
57113;SDS011;42994;51.606;9.988;2023-01-24T03:54:56;5.13;;;3.78;;
57113;SDS011;42994;51.606;9.988;2023-01-24T03:57:25;6.28;;;4.40;;
57113;SDS011;42994;51.606;9.988;2023-01-24T03:59:56;6.28;;;3.85;;
57113;SDS011;42994;51.606;9.988;2023-01-24T04:02:23;6.55;;;3.78;;
57113;SDS011;42994;51.606;9.988;2023-01-24T04:04:50;6.78;;;4.63;;
57113;SDS011;42994;51.606;9.988;2023-01-24T04:07:34;5.25;;;4.40;;
57113;SDS011;42994;51.606;9.988;2023-01-24T04:10:04;4.93;;;3.88;;
57113;SDS011;42994;51.606;9.988;2023-01-24T04:12:37;6.57;;;4.88;;
57113;SDS011;42994;51.606;9.988;2023-01-24T04:15:06;6.88;;;4.78;;
57113;SDS011;42994;51.606;9.988;2023-01-24T04:17:33;6.78;;;5.00;;
57113;SDS011;42994;51.606;9.988;2023-01-24T04:20:04;9.27;;;6.07;;
57113;SDS011;42994;51.606;9.988;2023-01-24T04:22:31;6.78;;;5.75;;
57113;SDS011;42994;51.606;9.988;2023-01-24T04:25:00;8.40;;;6.13;;
57113;SDS011;42994;51.606;9.988;2023-01-24T04:27:31;8.68;;;6.28;;
57113;SDS011;42994;51.606;9.988;2023-01-24T04:30:04;7.63;;;6.13;;
57113;SDS011;42994;51.606;9.988;2023-01-24T04:32:35;8.02;;;5.55;;
57113;SDS011;42994;51.606;9.988;2023-01-24T04:35:09;6.55;;;5.13;;
57113;SDS011;42994;51.606;9.988;2023-01-24T04:37:50;7.20;;;5.75;;
57113;SDS011;42994;51.606;9.988;2023-01-24T04:40:37;8.68;;;6.65;;
57113;SDS011;42994;51.606;9.988;2023-01-24T04:43:05;8.02;;;5.97;;
57113;SDS011;42994;51.606;9.988;2023-01-24T04:45:34;7.55;;;5.70;;
57113;SDS011;42994;51.606;9.988;2023-01-24T04:48:03;8.27;;;6.35;;
57113;SDS011;42994;51.606;9.988;2023-01-24T04:50:30;8.70;;;5.97;;
57113;SDS011;42994;51.606;9.988;2023-01-24T04:52:56;9.00;;;6.75;;
57113;SDS011;42994;51.606;9.988;2023-01-24T04:55:23;8.10;;;6.53;;
57113;SDS011;42994;51.606;9.988;2023-01-24T04:57:51;9.20;;;6.32;;
57113;SDS011;42994;51.606;9.988;2023-01-24T05:00:18;9.48;;;7.32;;
57113;SDS011;42994;51.606;9.988;2023-01-24T05:02:46;9.70;;;7.63;;
57113;SDS011;42994;51.606;9.988;2023-01-24T05:05:15;13.32;;;6.78;;
57113;SDS011;42994;51.606;9.988;2023-01-24T05:07:41;12.13;;;7.28;;
57113;SDS011;42994;51.606;9.988;2023-01-24T05:10:13;11.77;;;7.30;;
57113;SDS011;42994;51.606;9.988;2023-01-24T05:12:40;10.35;;;6.90;;
57113;SDS011;42994;51.606;9.988;2023-01-24T05:15:16;9.25;;;6.75;;
57113;SDS011;42994;51.606;9.988;2023-01-24T05:17:45;10.93;;;7.78;;
57113;SDS011;42994;51.606;9.988;2023-01-24T05:22:43;12.93;;;8.23;;
57113;SDS011;42994;51.606;9.988;2023-01-24T05:25:13;12.70;;;8.77;;
57113;SDS011;42994;51.606;9.988;2023-01-24T05:27:40;13.40;;;9.10;;
57113;SDS011;42994;51.606;9.988;2023-01-24T05:30:10;10.27;;;7.95;;
57113;SDS011;42994;51.606;9.988;2023-01-24T05:32:37;11.50;;;8.25;;
57113;SDS011;42994;51.606;9.988;2023-01-24T05:35:06;13.27;;;8.80;;
57113;SDS011;42994;51.606;9.988;2023-01-24T05:37:35;10.85;;;8.70;;
57113;SDS011;42994;51.606;9.988;2023-01-24T05:40:02;12.88;;;8.98;;
57113;SDS011;42994;51.606;9.988;2023-01-24T05:42:30;12.75;;;8.45;;
57113;SDS011;42994;51.606;9.988;2023-01-24T05:44:57;14.30;;;9.65;;
57113;SDS011;42994;51.606;9.988;2023-01-24T05:47:23;11.52;;;8.38;;
57113;SDS011;42994;51.606;9.988;2023-01-24T05:49:50;13.80;;;9.40;;
57113;SDS011;42994;51.606;9.988;2023-01-24T05:52:19;12.15;;;8.65;;
57113;SDS011;42994;51.606;9.988;2023-01-24T05:54:50;11.95;;;8.63;;
57113;SDS011;42994;51.606;9.988;2023-01-24T05:57:26;12.23;;;8.93;;
57113;SDS011;42994;51.606;9.988;2023-01-24T06:00:12;13.93;;;9.60;;
57113;SDS011;42994;51.606;9.988;2023-01-24T06:03:05;14.40;;;9.60;;
57113;SDS011;42994;51.606;9.988;2023-01-24T06:05:33;13.88;;;9.35;;
57113;SDS011;42994;51.606;9.988;2023-01-24T06:08:01;13.32;;;9.25;;
57113;SDS011;42994;51.606;9.988;2023-01-24T06:10:28;13.07;;;9.27;;
57113;SDS011;42994;51.606;9.988;2023-01-24T06:13:02;12.77;;;9.55;;
57113;SDS011;42994;51.606;9.988;2023-01-24T06:15:29;14.48;;;8.75;;
57113;SDS011;42994;51.606;9.988;2023-01-24T06:17:56;13.73;;;9.48;;
57113;SDS011;42994;51.606;9.988;2023-01-24T06:20:23;11.38;;;8.50;;
57113;SDS011;42994;51.606;9.988;2023-01-24T06:22:51;12.45;;;9.77;;
57113;SDS011;42994;51.606;9.988;2023-01-24T06:25:23;13.60;;;9.70;;
57113;SDS011;42994;51.606;9.988;2023-01-24T06:27:51;13.75;;;9.93;;
57113;SDS011;42994;51.606;9.988;2023-01-24T06:30:18;12.50;;;9.20;;
57113;SDS011;42994;51.606;9.988;2023-01-24T06:32:51;17.10;;;9.25;;
57113;SDS011;42994;51.606;9.988;2023-01-24T06:35:28;12.13;;;10.05;;
57113;SDS011;42994;51.606;9.988;2023-01-24T06:38:02;13.95;;;9.88;;
57113;SDS011;42994;51.606;9.988;2023-01-24T06:40:31;14.27;;;9.98;;
57113;SDS011;42994;51.606;9.988;2023-01-24T06:42:58;17.08;;;11.00;;
57113;SDS011;42994;51.606;9.988;2023-01-24T06:45:25;15.25;;;10.88;;
57113;SDS011;42994;51.606;9.988;2023-01-24T06:47:51;14.95;;;10.55;;
57113;SDS011;42994;51.606;9.988;2023-01-24T06:50:22;15.07;;;11.18;;
57113;SDS011;42994;51.606;9.988;2023-01-24T06:52:50;17.90;;;11.48;;
57113;SDS011;42994;51.606;9.988;2023-01-24T06:55:18;15.45;;;10.10;;
57113;SDS011;42994;51.606;9.988;2023-01-24T06:57:46;15.40;;;10.40;;
57113;SDS011;42994;51.606;9.988;2023-01-24T07:00:13;14.63;;;10.70;;
57113;SDS011;42994;51.606;9.988;2023-01-24T07:02:40;14.98;;;10.48;;
57113;SDS011;42994;51.606;9.988;2023-01-24T07:05:07;13.60;;;10.10;;
57113;SDS011;42994;51.606;9.988;2023-01-24T07:07:34;14.35;;;9.95;;
57113;SDS011;42994;51.606;9.988;2023-01-24T07:10:00;14.68;;;10.13;;
57113;SDS011;42994;51.606;9.988;2023-01-24T07:12:27;13.02;;;9.77;;
57113;SDS011;42994;51.606;9.988;2023-01-24T07:14:55;15.77;;;10.13;;
57113;SDS011;42994;51.606;9.988;2023-01-24T07:17:22;11.98;;;9.73;;
57113;SDS011;42994;51.606;9.988;2023-01-24T07:19:49;15.18;;;11.45;;
57113;SDS011;42994;51.606;9.988;2023-01-24T07:22:16;13.68;;;9.95;;
57113;SDS011;42994;51.606;9.988;2023-01-24T07:24:44;14.55;;;10.65;;
57113;SDS011;42994;51.606;9.988;2023-01-24T07:27:11;14.40;;;9.70;;
57113;SDS011;42994;51.606;9.988;2023-01-24T07:29:38;16.20;;;10.93;;
57113;SDS011;42994;51.606;9.988;2023-01-24T07:32:06;16.33;;;11.13;;
57113;SDS011;42994;51.606;9.988;2023-01-24T07:34:34;11.57;;;9.07;;
57113;SDS011;42994;51.606;9.988;2023-01-24T07:37:01;17.98;;;10.63;;
57113;SDS011;42994;51.606;9.988;2023-01-24T07:39:27;14.88;;;10.10;;
57113;SDS011;42994;51.606;9.988;2023-01-24T07:41:54;13.48;;;8.93;;
57113;SDS011;42994;51.606;9.988;2023-01-24T07:44:21;15.85;;;11.07;;
57113;SDS011;42994;51.606;9.988;2023-01-24T07:46:47;16.33;;;10.35;;
57113;SDS011;42994;51.606;9.988;2023-01-24T07:49:15;13.38;;;9.98;;
57113;SDS011;42994;51.606;9.988;2023-01-24T07:51:42;15.48;;;10.50;;
57113;SDS011;42994;51.606;9.988;2023-01-24T07:54:10;12.20;;;8.93;;
57113;SDS011;42994;51.606;9.988;2023-01-24T07:56:36;12.00;;;9.05;;
57113;SDS011;42994;51.606;9.988;2023-01-24T07:59:03;14.93;;;9.35;;
57113;SDS011;42994;51.606;9.988;2023-01-24T08:01:30;15.35;;;9.10;;
57113;SDS011;42994;51.606;9.988;2023-01-24T08:03:57;12.55;;;8.63;;
57113;SDS011;42994;51.606;9.988;2023-01-24T08:06:25;14.13;;;7.80;;
57113;SDS011;42994;51.606;9.988;2023-01-24T08:08:52;11.48;;;7.57;;
57113;SDS011;42994;51.606;9.988;2023-01-24T08:11:19;10.40;;;8.32;;
57113;SDS011;42994;51.606;9.988;2023-01-24T08:13:47;11.70;;;8.38;;
57113;SDS011;42994;51.606;9.988;2023-01-24T08:16:15;10.43;;;7.65;;
57113;SDS011;42994;51.606;9.988;2023-01-24T08:18:43;13.00;;;9.02;;
57113;SDS011;42994;51.606;9.988;2023-01-24T08:21:09;13.70;;;9.82;;
57113;SDS011;42994;51.606;9.988;2023-01-24T08:23:38;15.68;;;9.93;;
57113;SDS011;42994;51.606;9.988;2023-01-24T08:26:04;9.82;;;7.10;;
57113;SDS011;42994;51.606;9.988;2023-01-24T08:28:32;11.63;;;8.52;;
57113;SDS011;42994;51.606;9.988;2023-01-24T08:30:59;11.98;;;8.25;;
57113;SDS011;42994;51.606;9.988;2023-01-24T08:33:25;10.77;;;7.93;;
57113;SDS011;42994;51.606;9.988;2023-01-24T08:35:52;13.90;;;8.68;;
57113;SDS011;42994;51.606;9.988;2023-01-24T08:38:19;9.00;;;6.82;;
57113;SDS011;42994;51.606;9.988;2023-01-24T08:40:47;13.68;;;8.88;;
57113;SDS011;42994;51.606;9.988;2023-01-24T08:43:13;10.60;;;8.07;;
57113;SDS011;42994;51.606;9.988;2023-01-24T08:45:40;12.25;;;8.90;;
57113;SDS011;42994;51.606;9.988;2023-01-24T08:48:10;10.55;;;8.13;;
57113;SDS011;42994;51.606;9.988;2023-01-24T08:50:37;15.23;;;9.02;;
57113;SDS011;42994;51.606;9.988;2023-01-24T08:53:03;14.10;;;8.55;;
57113;SDS011;42994;51.606;9.988;2023-01-24T08:55:30;8.70;;;7.03;;
57113;SDS011;42994;51.606;9.988;2023-01-24T08:58:01;10.77;;;7.82;;
57113;SDS011;42994;51.606;9.988;2023-01-24T09:00:29;8.75;;;6.43;;
57113;SDS011;42994;51.606;9.988;2023-01-24T09:02:57;8.48;;;7.18;;
57113;SDS011;42994;51.606;9.988;2023-01-24T09:05:25;10.93;;;7.97;;
57113;SDS011;42994;51.606;9.988;2023-01-24T09:07:52;9.23;;;7.45;;
57113;SDS011;42994;51.606;9.988;2023-01-24T09:10:18;11.48;;;7.75;;
57113;SDS011;42994;51.606;9.988;2023-01-24T09:12:45;13.35;;;8.10;;
57113;SDS011;42994;51.606;9.988;2023-01-24T09:15:13;13.77;;;9.30;;
57113;SDS011;42994;51.606;9.988;2023-01-24T09:17:40;11.75;;;8.43;;
57113;SDS011;42994;51.606;9.988;2023-01-24T09:20:07;12.82;;;8.45;;
57113;SDS011;42994;51.606;9.988;2023-01-24T09:22:34;8.68;;;6.15;;
57113;SDS011;42994;51.606;9.988;2023-01-24T09:25:01;10.20;;;7.15;;
57113;SDS011;42994;51.606;9.988;2023-01-24T09:27:28;11.80;;;8.45;;
57113;SDS011;42994;51.606;9.988;2023-01-24T09:29:55;12.20;;;8.35;;
57113;SDS011;42994;51.606;9.988;2023-01-24T09:32:23;11.48;;;7.95;;
57113;SDS011;42994;51.606;9.988;2023-01-24T09:34:50;10.80;;;6.35;;
57113;SDS011;42994;51.606;9.988;2023-01-24T09:37:17;9.85;;;6.97;;
57113;SDS011;42994;51.606;9.988;2023-01-24T09:39:44;10.15;;;7.65;;
57113;SDS011;42994;51.606;9.988;2023-01-24T09:42:12;10.73;;;7.45;;
57113;SDS011;42994;51.606;9.988;2023-01-24T09:44:50;9.82;;;7.13;;
57113;SDS011;42994;51.606;9.988;2023-01-24T09:47:25;13.60;;;8.25;;
57113;SDS011;42994;51.606;9.988;2023-01-24T09:50:10;12.27;;;7.55;;
57113;SDS011;42994;51.606;9.988;2023-01-24T09:52:42;12.15;;;8.27;;
57113;SDS011;42994;51.606;9.988;2023-01-24T09:55:12;11.85;;;8.60;;
57113;SDS011;42994;51.606;9.988;2023-01-24T09:57:47;10.70;;;7.95;;
57113;SDS011;42994;51.606;9.988;2023-01-24T10:00:19;12.73;;;7.95;;
57113;SDS011;42994;51.606;9.988;2023-01-24T10:02:51;12.90;;;8.43;;
57113;SDS011;42994;51.606;9.988;2023-01-24T10:05:20;12.95;;;8.02;;
57113;SDS011;42994;51.606;9.988;2023-01-24T10:10:48;10.07;;;6.85;;
57113;SDS011;42994;51.606;9.988;2023-01-24T10:13:26;11.70;;;7.75;;
57113;SDS011;42994;51.606;9.988;2023-01-24T10:16:18;11.98;;;8.57;;
57113;SDS011;42994;51.606;9.988;2023-01-24T10:19:06;11.90;;;7.97;;
57113;SDS011;42994;51.606;9.988;2023-01-24T10:21:53;9.23;;;7.72;;
57113;SDS011;42994;51.606;9.988;2023-01-24T10:24:30;11.85;;;7.75;;
57113;SDS011;42994;51.606;9.988;2023-01-24T10:27:01;13.23;;;8.80;;
57113;SDS011;42994;51.606;9.988;2023-01-24T10:29:40;14.02;;;8.48;;
57113;SDS011;42994;51.606;9.988;2023-01-24T10:32:13;13.25;;;9.50;;
57113;SDS011;42994;51.606;9.988;2023-01-24T10:34:44;11.40;;;8.48;;
57113;SDS011;42994;51.606;9.988;2023-01-24T10:37:15;9.68;;;7.35;;
57113;SDS011;42994;51.606;9.988;2023-01-24T10:39:46;11.32;;;8.52;;
57113;SDS011;42994;51.606;9.988;2023-01-24T10:42:15;13.55;;;8.82;;
57113;SDS011;42994;51.606;9.988;2023-01-24T10:44:47;11.45;;;7.93;;
57113;SDS011;42994;51.606;9.988;2023-01-24T10:47:17;13.05;;;7.70;;
57113;SDS011;42994;51.606;9.988;2023-01-24T10:50:07;12.80;;;9.52;;
57113;SDS011;42994;51.606;9.988;2023-01-24T10:52:34;12.30;;;8.45;;
57113;SDS011;42994;51.606;9.988;2023-01-24T10:55:02;12.25;;;9.02;;
57113;SDS011;42994;51.606;9.988;2023-01-24T10:57:48;11.57;;;8.25;;
57113;SDS011;42994;51.606;9.988;2023-01-24T11:00:17;13.25;;;8.48;;
57113;SDS011;42994;51.606;9.988;2023-01-24T11:02:51;14.05;;;8.40;;
57113;SDS011;42994;51.606;9.988;2023-01-24T11:05:21;13.68;;;8.98;;
57113;SDS011;42994;51.606;9.988;2023-01-24T11:07:50;10.73;;;8.40;;
57113;SDS011;42994;51.606;9.988;2023-01-24T11:10:19;15.35;;;8.70;;
57113;SDS011;42994;51.606;9.988;2023-01-24T11:12:49;15.43;;;9.43;;
57113;SDS011;42994;51.606;9.988;2023-01-24T11:15:18;12.63;;;8.32;;
57113;SDS011;42994;51.606;9.988;2023-01-24T11:17:48;10.85;;;7.68;;
57113;SDS011;42994;51.606;9.988;2023-01-24T11:20:24;10.60;;;6.82;;
57113;SDS011;42994;51.606;9.988;2023-01-24T11:23:00;13.55;;;8.73;;
57113;SDS011;42994;51.606;9.988;2023-01-24T11:25:28;11.23;;;8.07;;
57113;SDS011;42994;51.606;9.988;2023-01-24T11:27:55;11.15;;;8.10;;
57113;SDS011;42994;51.606;9.988;2023-01-24T11:30:22;11.55;;;8.43;;
57113;SDS011;42994;51.606;9.988;2023-01-24T11:32:52;12.73;;;9.45;;
57113;SDS011;42994;51.606;9.988;2023-01-24T11:35:29;15.15;;;9.48;;
57113;SDS011;42994;51.606;9.988;2023-01-24T11:38:03;10.38;;;7.60;;
57113;SDS011;42994;51.606;9.988;2023-01-24T11:40:39;12.90;;;7.95;;
57113;SDS011;42994;51.606;9.988;2023-01-24T11:43:15;11.10;;;8.02;;
57113;SDS011;42994;51.606;9.988;2023-01-24T11:49:04;13.45;;;8.82;;
57113;SDS011;42994;51.606;9.988;2023-01-24T11:51:50;12.27;;;8.77;;
57113;SDS011;42994;51.606;9.988;2023-01-24T11:54:35;12.55;;;8.85;;
57113;SDS011;42994;51.606;9.988;2023-01-24T11:57:12;10.98;;;7.38;;
57113;SDS011;42994;51.606;9.988;2023-01-24T11:59:54;12.48;;;8.15;;
57113;SDS011;42994;51.606;9.988;2023-01-24T12:02:54;11.90;;;8.48;;
57113;SDS011;42994;51.606;9.988;2023-01-24T12:05:36;12.00;;;8.63;;
57113;SDS011;42994;51.606;9.988;2023-01-24T12:08:18;13.15;;;8.63;;
57113;SDS011;42994;51.606;9.988;2023-01-24T12:10:59;13.13;;;9.07;;
57113;SDS011;42994;51.606;9.988;2023-01-24T12:13:31;11.60;;;8.30;;
57113;SDS011;42994;51.606;9.988;2023-01-24T12:16:10;10.38;;;7.30;;
57113;SDS011;42994;51.606;9.988;2023-01-24T12:18:47;13.90;;;7.93;;
57113;SDS011;42994;51.606;9.988;2023-01-24T12:21:24;11.82;;;8.18;;
57113;SDS011;42994;51.606;9.988;2023-01-24T12:23:53;12.93;;;9.43;;
57113;SDS011;42994;51.606;9.988;2023-01-24T12:26:23;11.20;;;8.10;;
57113;SDS011;42994;51.606;9.988;2023-01-24T12:28:57;11.70;;;8.00;;
57113;SDS011;42994;51.606;9.988;2023-01-24T12:31:32;10.93;;;7.40;;
57113;SDS011;42994;51.606;9.988;2023-01-24T12:34:06;13.50;;;8.40;;
57113;SDS011;42994;51.606;9.988;2023-01-24T12:36:40;16.98;;;8.05;;
57113;SDS011;42994;51.606;9.988;2023-01-24T12:39:15;14.05;;;9.57;;
57113;SDS011;42994;51.606;9.988;2023-01-24T12:41:47;12.13;;;8.77;;
57113;SDS011;42994;51.606;9.988;2023-01-24T12:44:24;11.32;;;7.90;;
57113;SDS011;42994;51.606;9.988;2023-01-24T12:47:08;13.52;;;8.90;;
57113;SDS011;42994;51.606;9.988;2023-01-24T12:49:45;13.32;;;8.48;;
57113;SDS011;42994;51.606;9.988;2023-01-24T12:52:20;13.80;;;9.13;;
57113;SDS011;42994;51.606;9.988;2023-01-24T12:54:56;11.85;;;8.77;;
57113;SDS011;42994;51.606;9.988;2023-01-24T12:57:27;12.40;;;8.00;;
57113;SDS011;42994;51.606;9.988;2023-01-24T12:59:58;10.98;;;8.15;;
57113;SDS011;42994;51.606;9.988;2023-01-24T13:02:36;12.75;;;9.30;;
57113;SDS011;42994;51.606;9.988;2023-01-24T13:05:18;13.32;;;8.65;;
57113;SDS011;42994;51.606;9.988;2023-01-24T13:07:53;13.77;;;9.23;;
57113;SDS011;42994;51.606;9.988;2023-01-24T13:10:34;13.80;;;9.40;;
57113;SDS011;42994;51.606;9.988;2023-01-24T13:13:11;12.68;;;8.95;;
57113;SDS011;42994;51.606;9.988;2023-01-24T13:15:47;12.90;;;8.05;;
57113;SDS011;42994;51.606;9.988;2023-01-24T13:18:29;12.07;;;7.78;;
57113;SDS011;42994;51.606;9.988;2023-01-24T13:21:06;12.57;;;8.52;;
57113;SDS011;42994;51.606;9.988;2023-01-24T13:23:39;11.95;;;8.63;;
57113;SDS011;42994;51.606;9.988;2023-01-24T13:26:25;14.90;;;9.27;;
57113;SDS011;42994;51.606;9.988;2023-01-24T13:29:05;15.55;;;10.65;;
57113;SDS011;42994;51.606;9.988;2023-01-24T13:31:46;12.65;;;9.85;;
57113;SDS011;42994;51.606;9.988;2023-01-24T13:34:21;13.57;;;9.15;;
57113;SDS011;42994;51.606;9.988;2023-01-24T13:36:55;13.43;;;8.85;;
57113;SDS011;42994;51.606;9.988;2023-01-24T13:39:27;12.65;;;9.45;;
57113;SDS011;42994;51.606;9.988;2023-01-24T13:42:02;14.98;;;9.95;;
57113;SDS011;42994;51.606;9.988;2023-01-24T13:44:31;15.13;;;10.35;;
57113;SDS011;42994;51.606;9.988;2023-01-24T13:47:22;12.75;;;9.45;;
57113;SDS011;42994;51.606;9.988;2023-01-24T13:52:42;11.13;;;8.57;;
57113;SDS011;42994;51.606;9.988;2023-01-24T13:58:29;17.42;;;10.68;;
57113;SDS011;42994;51.606;9.988;2023-01-24T14:00:59;14.38;;;10.23;;
57113;SDS011;42994;51.606;9.988;2023-01-24T14:03:31;16.77;;;10.90;;
57113;SDS011;42994;51.606;9.988;2023-01-24T14:06:06;15.63;;;9.73;;
57113;SDS011;42994;51.606;9.988;2023-01-24T14:08:41;15.75;;;10.57;;
57113;SDS011;42994;51.606;9.988;2023-01-24T14:17:02;13.70;;;8.77;;
57113;SDS011;42994;51.606;9.988;2023-01-24T14:19:52;16.20;;;10.20;;
57113;SDS011;42994;51.606;9.988;2023-01-24T14:22:23;13.27;;;9.57;;
57113;SDS011;42994;51.606;9.988;2023-01-24T14:25:27;13.23;;;9.18;;
57113;SDS011;42994;51.606;9.988;2023-01-24T14:28:11;15.35;;;10.15;;
57113;SDS011;42994;51.606;9.988;2023-01-24T14:30:45;16.50;;;10.95;;
57113;SDS011;42994;51.606;9.988;2023-01-24T14:33:19;18.65;;;12.25;;
57113;SDS011;42994;51.606;9.988;2023-01-24T14:35:56;16.98;;;10.25;;
57113;SDS011;42994;51.606;9.988;2023-01-24T14:38:27;15.88;;;10.40;;
57113;SDS011;42994;51.606;9.988;2023-01-24T14:40:53;16.45;;;10.35;;
57113;SDS011;42994;51.606;9.988;2023-01-24T14:43:23;14.30;;;9.95;;
57113;SDS011;42994;51.606;9.988;2023-01-24T14:45:55;20.42;;;11.05;;
57113;SDS011;42994;51.606;9.988;2023-01-24T14:48:22;15.35;;;9.52;;
57113;SDS011;42994;51.606;9.988;2023-01-24T14:50:57;16.92;;;10.93;;
57113;SDS011;42994;51.606;9.988;2023-01-24T14:53:29;14.93;;;9.93;;
57113;SDS011;42994;51.606;9.988;2023-01-24T14:56:00;13.80;;;9.23;;
57113;SDS011;42994;51.606;9.988;2023-01-24T14:58:28;14.68;;;10.05;;
57113;SDS011;42994;51.606;9.988;2023-01-24T15:00:58;16.67;;;10.43;;
57113;SDS011;42994;51.606;9.988;2023-01-24T15:03:27;15.82;;;9.43;;
57113;SDS011;42994;51.606;9.988;2023-01-24T15:05:57;15.63;;;9.75;;
57113;SDS011;42994;51.606;9.988;2023-01-24T15:08:25;16.25;;;9.15;;
57113;SDS011;42994;51.606;9.988;2023-01-24T15:10:56;17.00;;;9.93;;
57113;SDS011;42994;51.606;9.988;2023-01-24T15:13:28;13.77;;;9.10;;
57113;SDS011;42994;51.606;9.988;2023-01-24T15:15:59;15.50;;;9.60;;
57113;SDS011;42994;51.606;9.988;2023-01-24T15:21:16;16.90;;;11.30;;
57113;SDS011;42994;51.606;9.988;2023-01-24T15:23:47;14.43;;;9.35;;
57113;SDS011;42994;51.606;9.988;2023-01-24T15:26:23;17.00;;;9.90;;
57113;SDS011;42994;51.606;9.988;2023-01-24T15:28:51;28.95;;;15.38;;